AM-0003 weather

Hoktember Highway Strip
Hoktember, Armavir Province, Armenia

Public forecast

Using degrees Celsius for public forecast. Weather courtesy of forecast.io.

Closest aviation weather report (METAR) to Hoktember Highway Strip

Closest report is Zvartnots International Airport, 23.9 nm (44.3 km) E. Retrieved 2019/10/18 02:30 UTC (0 seconds ago):

UDYZ 180230Z 34001KT 9999 NSC 05/M04 Q1021 R09/010070 NOSIG

Closest aviation forecast (TAF) to Hoktember Highway Strip

Forecast is more than 12 hours old.

Closest forecast is Zvartnots International Airport, 23.9 nm (44.3 km) E. Retrieved 2019/10/17 12:00 UTC (14 hours ago):

TAF UDYZ 171120Z 1712/1812 22006KT CAVOK